createdAt,value
2019-06-10T00:01:51.420Z,986.93
2019-06-10T00:06:50.921Z,986.91
2019-06-10T00:11:51.436Z,986.78
2019-06-10T00:16:50.868Z,986.70
2019-06-10T00:21:50.941Z,986.64
2019-06-10T00:26:51.111Z,986.69
2019-06-10T00:31:50.816Z,986.63
2019-06-10T00:36:50.872Z,986.71
2019-06-10T00:41:52.093Z,986.54
2019-06-10T00:46:51.665Z,986.63
2019-06-10T00:51:50.909Z,986.70
2019-06-10T00:56:51.754Z,986.59
2019-06-10T01:01:50.871Z,986.50
2019-06-10T01:06:51.370Z,986.48
2019-06-10T01:11:51.660Z,986.58
2019-06-10T01:16:50.641Z,986.54
2019-06-10T01:21:51.212Z,986.59
2019-06-10T01:26:50.569Z,986.79
2019-06-10T01:31:51.281Z,986.74
2019-06-10T01:36:50.987Z,986.67
2019-06-10T01:41:51.222Z,986.76
2019-06-10T01:46:51.546Z,986.63
2019-06-10T01:51:51.605Z,986.64
2019-06-10T01:56:51.024Z,986.57
2019-06-10T02:01:51.629Z,986.45
2019-06-10T02:06:51.094Z,986.41
2019-06-10T02:11:51.387Z,986.37
2019-06-10T02:16:50.712Z,986.40
2019-06-10T02:21:51.054Z,986.29
2019-06-10T02:26:51.596Z,986.14
2019-06-10T02:31:52.127Z,986.32
2019-06-10T02:36:49.491Z,986.22
2019-06-10T02:41:52.898Z,986.18
2019-06-10T02:46:49.557Z,986.26
2019-06-10T02:51:49.842Z,986.26
2019-06-10T02:56:53.447Z,986.19
2019-06-10T03:01:49.469Z,986.27
2019-06-10T03:06:49.710Z,986.28
2019-06-10T03:11:49.543Z,986.26
2019-06-10T03:16:49.794Z,986.27
2019-06-10T03:21:52.040Z,986.30
2019-06-10T03:26:52.058Z,986.22
2019-06-10T03:31:51.109Z,986.22
2019-06-10T03:36:49.621Z,986.29
2019-06-10T03:41:49.754Z,986.31
2019-06-10T03:46:49.610Z,986.25
2019-06-10T03:51:49.857Z,986.30
2019-06-10T03:56:51.959Z,986.14
2019-06-10T04:01:49.509Z,986.04
2019-06-10T04:06:52.917Z,986.13
2019-06-10T04:11:49.557Z,986.16
2019-06-10T04:16:49.792Z,986.19
2019-06-10T04:21:49.678Z,986.27
2019-06-10T04:26:49.484Z,986.21
2019-06-10T04:31:52.246Z,986.23
2019-06-10T04:36:52.419Z,986.19
2019-06-10T04:41:49.805Z,986.25
2019-06-10T04:46:51.962Z,986.30
2019-06-10T04:51:52.236Z,986.29
2019-06-10T04:56:49.691Z,986.34
2019-06-10T05:01:49.531Z,986.37
2019-06-10T05:06:49.788Z,986.32
2019-06-10T05:11:52.102Z,986.43
2019-06-10T05:16:49.908Z,986.42
2019-06-10T05:21:49.720Z,986.44
2019-06-10T05:26:49.944Z,986.41
2019-06-10T05:31:52.149Z,986.54
2019-06-10T05:36:52.411Z,986.41
2019-06-10T05:41:50.823Z,986.43
2019-06-10T05:46:49.648Z,986.28
2019-06-10T05:51:49.878Z,986.28
2019-06-10T05:56:52.057Z,986.34
2019-06-10T06:01:49.963Z,986.28
2019-06-10T06:06:49.777Z,986.36
2019-06-10T06:11:49.631Z,986.42
2019-06-10T06:16:49.906Z,986.44
2019-06-10T06:21:49.689Z,986.43
2019-06-10T06:26:49.956Z,986.36
2019-06-10T06:31:52.099Z,986.42
2019-06-10T06:36:50.012Z,986.27
2019-06-10T06:41:49.852Z,986.25
2019-06-10T06:46:49.718Z,986.28
2019-06-10T06:51:56.186Z,986.13
2019-06-10T06:56:49.752Z,986.19
2019-06-10T07:01:49.550Z,986.22
2019-06-10T07:06:53.354Z,986.34
2019-06-10T07:11:49.723Z,986.32
2019-06-10T07:16:49.918Z,986.28
2019-06-10T07:22:07.535Z,986.32
2019-06-10T07:26:53.994Z,986.23
2019-06-10T07:31:51.061Z,986.11
2019-06-10T07:36:52.019Z,985.99
2019-06-10T07:41:52.624Z,986.06
2019-06-10T07:46:49.744Z,986.06
2019-06-10T07:51:52.210Z,986.09
2019-06-10T07:56:50.497Z,985.78
2019-06-10T08:01:51.612Z,985.76
2019-06-10T08:06:50.703Z,985.69
2019-06-10T08:11:49.744Z,985.64
2019-06-10T08:16:52.906Z,985.63
2019-06-10T08:21:49.903Z,985.42
2019-06-10T08:26:50.079Z,985.53
2019-06-10T08:31:50.084Z,985.51
2019-06-10T08:36:50.810Z,985.47
2019-06-10T08:41:50.002Z,985.34
2019-06-10T08:46:49.739Z,985.48
2019-06-10T08:51:50.346Z,985.46
2019-06-10T08:56:50.914Z,985.33
2019-06-10T09:01:53.669Z,985.21
2019-06-10T09:06:51.486Z,985.24
2019-06-10T09:11:52.009Z,985.22
2019-06-10T09:16:51.861Z,985.50
2019-06-10T09:21:52.790Z,985.35
2019-06-10T09:26:51.367Z,985.30
2019-06-10T09:31:52.284Z,985.27
2019-06-10T09:36:56.422Z,985.37
2019-06-10T09:41:56.646Z,985.24
2019-06-10T09:46:52.031Z,985.30
2019-06-10T09:51:52.730Z,985.24
2019-06-10T09:56:50.490Z,985.32
2019-06-10T10:01:56.653Z,985.11
2019-06-10T10:06:54.364Z,985.11
2019-06-10T10:11:51.474Z,984.90
2019-06-10T10:16:56.972Z,984.99
2019-06-10T10:21:55.105Z,984.88
2019-06-10T10:26:52.380Z,984.79
2019-06-10T10:31:52.283Z,984.71
2019-06-10T10:36:54.367Z,984.75
2019-06-10T10:41:51.951Z,984.72
2019-06-10T10:46:49.828Z,984.69
2019-06-10T10:51:51.133Z,984.64
2019-06-10T10:56:54.716Z,984.62
2019-06-10T11:01:49.752Z,984.47
2019-06-10T11:06:49.954Z,984.43
2019-06-10T11:11:52.237Z,984.42
2019-06-10T11:16:50.849Z,984.29
2019-06-10T11:21:49.880Z,984.18
2019-06-10T11:26:53.249Z,984.21
2019-06-10T11:31:50.500Z,984.12
2019-06-10T11:36:51.137Z,984.02
2019-06-10T11:41:52.482Z,984.01
2019-06-10T11:46:51.846Z,983.99
2019-06-10T11:51:52.643Z,984.08
2019-06-10T11:56:49.929Z,984.19
2019-06-10T12:01:51.436Z,984.12
2019-06-10T12:06:50.620Z,984.03
2019-06-10T12:11:51.602Z,983.83
2019-06-10T12:21:53.413Z,983.55
2019-06-10T12:26:50.144Z,983.47
2019-06-10T12:31:50.802Z,983.44
2019-06-10T12:36:50.484Z,983.53
2019-06-10T12:41:50.049Z,983.55
2019-06-10T12:46:53.300Z,983.53
2019-06-10T12:51:52.463Z,983.48
2019-06-10T12:56:49.945Z,983.33
2019-06-10T13:01:52.942Z,983.26
2019-06-10T13:06:51.986Z,983.12
2019-06-10T13:11:52.588Z,982.99
2019-06-10T13:16:52.455Z,982.98
2019-06-10T13:21:49.973Z,983.09
2019-06-10T13:26:52.238Z,983.20
2019-06-10T13:31:52.768Z,983.22
2019-06-10T13:36:49.916Z,983.36
2019-06-10T13:41:50.084Z,983.48
2019-06-10T13:46:49.946Z,983.44
2019-06-10T13:51:52.461Z,983.45
2019-06-10T13:56:52.215Z,983.25
2019-06-10T14:01:52.576Z,983.17
2019-06-10T14:06:53.319Z,983.00
2019-06-10T14:11:49.885Z,982.98
2019-06-10T14:16:52.765Z,982.80
2019-06-10T14:21:49.973Z,982.66
2019-06-10T14:26:50.212Z,982.60
2019-06-10T14:31:53.013Z,982.49
2019-06-10T14:36:52.349Z,982.63
2019-06-10T14:41:52.343Z,982.67
2019-06-10T14:46:49.951Z,982.74
2019-06-10T14:51:50.204Z,982.71
2019-06-10T14:56:54.706Z,982.71
2019-06-10T15:01:52.138Z,982.82
2019-06-10T15:06:50.086Z,982.99
2019-06-10T15:11:52.152Z,982.95
2019-06-10T15:16:53.153Z,983.00
2019-06-10T15:21:52.232Z,983.05
2019-06-10T15:27:05.964Z,983.28
2019-06-10T15:32:07.871Z,983.45
2019-06-10T15:36:52.585Z,983.91
2019-06-10T15:41:52.183Z,984.01
2019-06-10T15:46:52.300Z,984.21
2019-06-10T15:51:52.431Z,984.04
2019-06-10T15:56:55.790Z,984.44
2019-06-10T16:01:50.303Z,984.34
2019-06-10T16:06:50.113Z,984.09
2019-06-10T16:11:50.391Z,983.93
2019-06-10T16:16:52.437Z,983.90
2019-06-10T16:21:52.364Z,983.79
2019-06-10T16:26:52.441Z,983.53
2019-06-10T16:31:50.087Z,983.54
2019-06-10T16:36:50.343Z,983.72
2019-06-10T16:41:52.195Z,983.48
2019-06-10T16:46:52.531Z,983.32
2019-06-10T16:51:52.180Z,983.32
2019-06-10T16:56:52.168Z,983.37
2019-06-10T17:01:50.306Z,983.23
2019-06-10T17:06:52.477Z,983.25
2019-06-10T17:11:49.989Z,982.96
2019-06-10T17:16:52.294Z,983.00
2019-06-10T17:21:50.064Z,983.23
2019-06-10T17:26:50.314Z,983.26
2019-06-10T17:31:50.099Z,983.28
2019-06-10T17:36:50.393Z,983.46
2019-06-10T17:41:50.206Z,983.38
2019-06-10T17:46:50.031Z,983.43
2019-06-10T17:51:52.456Z,983.48
2019-06-10T17:56:50.113Z,983.58
2019-06-10T18:01:52.405Z,983.56
2019-06-10T18:06:52.765Z,983.44
2019-06-10T18:11:50.422Z,983.47
2019-06-10T18:16:52.377Z,983.36
2019-06-10T18:21:52.149Z,983.23
2019-06-10T18:26:52.748Z,983.34
2019-06-10T18:31:50.212Z,983.47
2019-06-10T18:36:52.001Z,983.57
2019-06-10T18:41:52.710Z,983.63
2019-06-10T18:46:50.105Z,983.57
2019-06-10T18:51:53.003Z,983.66
2019-06-10T18:56:52.391Z,983.68
2019-06-10T19:01:52.754Z,983.65
2019-06-10T19:06:52.552Z,983.51
2019-06-10T19:11:50.078Z,983.65
2019-06-10T19:16:52.289Z,983.77
2019-06-10T19:22:02.730Z,983.80
2019-06-10T19:26:52.608Z,983.79
2019-06-10T19:31:52.479Z,983.77
2019-06-10T19:36:52.168Z,983.81
2019-06-10T19:41:52.834Z,983.93
2019-06-10T19:46:52.109Z,984.07
2019-06-10T19:51:52.467Z,984.22
2019-06-10T19:56:52.289Z,984.35
2019-06-10T20:01:50.445Z,984.42
2019-06-10T20:06:50.764Z,984.35
2019-06-10T20:11:50.495Z,984.24
2019-06-10T20:16:52.733Z,984.18
2019-06-10T20:21:50.163Z,984.26
2019-06-10T20:26:52.740Z,984.18
2019-06-10T20:31:52.281Z,984.05
2019-06-10T20:36:50.471Z,983.97
2019-06-10T20:41:54.826Z,984.05
2019-06-10T20:46:50.135Z,984.07
2019-06-10T20:56:52.809Z,984.09
2019-06-10T21:01:51.397Z,984.01
2019-06-10T21:06:52.994Z,983.91
2019-06-10T21:11:51.323Z,983.75
2019-06-10T21:16:52.961Z,983.75
2019-06-10T21:21:54.210Z,983.73
2019-06-10T21:26:54.284Z,983.69
2019-06-10T21:31:52.209Z,983.90
2019-06-10T21:36:52.746Z,983.95
2019-06-10T21:41:52.950Z,984.01
2019-06-10T21:46:50.379Z,984.05
2019-06-10T21:51:52.227Z,983.92
2019-06-10T21:56:54.064Z,983.91
2019-06-10T22:01:51.244Z,983.99
2019-06-10T22:06:52.888Z,983.98
2019-06-10T22:11:52.605Z,984.02
2019-06-10T22:16:52.895Z,984.08
2019-06-10T22:21:51.204Z,984.12
2019-06-10T22:26:51.011Z,984.14
2019-06-10T22:31:53.211Z,984.06
2019-06-10T22:36:52.842Z,984.17
2019-06-10T22:41:53.651Z,984.28
2019-06-10T22:46:52.173Z,984.27
2019-06-10T22:51:53.389Z,984.26
2019-06-10T22:56:51.957Z,984.27
2019-06-10T23:01:53.573Z,984.31
2019-06-10T23:06:53.038Z,984.20
2019-06-10T23:11:53.113Z,984.08
2019-06-10T23:16:51.462Z,984.02
2019-06-10T23:21:51.801Z,983.89
2019-06-10T23:26:51.570Z,983.74
2019-06-10T23:31:54.432Z,983.79
2019-06-10T23:36:53.275Z,983.95
2019-06-10T23:41:52.840Z,983.84
2019-06-10T23:46:51.104Z,983.92
2019-06-10T23:51:53.817Z,984.04
2019-06-10T23:56:50.482Z,984.00
